Time;durP1;ratioP1;P1;durP2;ratioP2;P2;SDS_P1;SDS_P2;PMS_P1;PMS_P2;Temp;Humidity;BMP_temperature;BMP_pressure;BME280_temperature;BME280_humidity;BME280_pressure;Samples;Min_cycle;Max_cycle;Signal;HPM_P1;HPM_P2
2022/07/24 00:00:06;;;;;;;5.75;2.53;;;15.10;99.90;;;;;;4974802;28;20022;-75
2022/07/24 00:02:31;;;;;;;9.23;2.30;;;15.00;99.90;;;;;;4974065;28;20027;-74
2022/07/24 00:04:57;;;;;;;3.33;2.33;;;15.00;99.90;;;;;;4974397;28;20063;-76
2022/07/24 00:07:23;;;;;;;4.35;2.38;;;15.00;99.90;;;;;;4974940;28;20058;-74
2022/07/24 00:09:49;;;;;;;2.83;1.98;;;15.10;99.90;;;;;;4974822;28;20023;-75
2022/07/24 00:12:14;;;;;;;5.55;2.47;;;15.00;99.90;;;;;;4974320;28;20051;-75
2022/07/24 00:14:40;;;;;;;4.28;2.20;;;15.00;99.90;;;;;;4974660;28;20038;-75
2022/07/24 00:17:05;;;;;;;3.28;2.13;;;15.10;99.90;;;;;;4974624;28;20039;-74
2022/07/24 00:19:31;;;;;;;3.20;2.10;;;15.20;99.90;;;;;;4957075;28;20027;-74
2022/07/24 00:21:59;;;;;;;4.35;2.35;;;15.10;99.90;;;;;;4974467;28;20038;-74
2022/07/24 00:24:25;;;;;;;5.82;2.85;;;15.00;99.90;;;;;;4956910;28;20019;-74
2022/07/24 00:26:51;;;;;;;9.05;2.42;;;15.20;99.90;;;;;;4974007;28;20112;-75
2022/07/24 00:29:17;;;;;;;5.13;2.22;;;15.10;99.90;;;;;;4974519;28;20031;-74
2022/07/24 00:31:42;;;;;;;7.05;2.65;;;15.00;99.90;;;;;;4974471;28;20038;-74
2022/07/24 00:34:08;;;;;;;7.57;2.80;;;15.00;99.90;;;;;;4974316;28;20019;-74
2022/07/24 00:36:34;;;;;;;4.43;2.40;;;15.00;99.90;;;;;;4974601;28;20609;-74
2022/07/24 00:38:59;;;;;;;4.25;2.58;;;14.90;99.90;;;;;;4974553;28;20027;-74
2022/07/24 00:41:25;;;;;;;3.33;1.75;;;14.90;99.90;;;;;;4974198;28;20023;-74
2022/07/24 00:44:07;;;;;;;7.40;1.90;;;15.00;99.90;;;;;;4973622;28;20074;-76
2022/07/24 00:46:34;;;;;;;5.45;2.35;;;14.80;99.90;;;;;;4955911;28;20066;-75
2022/07/24 00:49:00;;;;;;;5.50;2.33;;;14.80;99.90;;;;;;4973907;28;20471;-74
2022/07/24 00:51:25;;;;;;;4.82;2.75;;;14.90;99.90;;;;;;4973542;28;20062;-74
2022/07/24 00:53:51;;;;;;;5.25;2.67;;;14.70;99.90;;;;;;4973857;28;20035;-75
2022/07/24 00:56:17;;;;;;;4.32;2.35;;;14.80;99.90;;;;;;4974090;28;20611;-75
2022/07/24 00:58:46;;;;;;;3.58;2.08;;;14.80;99.90;;;;;;4973680;28;20042;-75
2022/07/24 01:01:12;;;;;;;11.43;2.67;;;14.80;99.90;;;;;;4973885;28;20031;-75
2022/07/24 01:03:37;;;;;;;7.40;2.42;;;14.80;99.90;;;;;;4973220;28;20046;-75
2022/07/24 01:06:03;;;;;;;9.05;2.50;;;14.80;99.90;;;;;;4973616;28;20038;-75
2022/07/24 01:08:29;;;;;;;5.35;2.10;;;14.80;99.90;;;;;;4973402;28;20032;-75
2022/07/24 01:10:55;;;;;;;2.88;1.83;;;14.80;99.90;;;;;;4974124;28;20038;-75
2022/07/24 01:13:22;;;;;;;6.35;2.13;;;14.80;99.90;;;;;;4973148;28;20051;-75
2022/07/24 01:15:48;;;;;;;5.45;2.50;;;14.80;99.90;;;;;;4973689;28;20120;-75
2022/07/24 01:18:13;;;;;;;3.58;2.03;;;14.80;99.90;;;;;;4973647;28;20728;-74
2022/07/24 01:20:39;;;;;;;3.70;2.35;;;14.70;99.90;;;;;;4973308;28;20035;-74
2022/07/24 01:23:05;;;;;;;6.68;2.70;;;14.60;99.90;;;;;;4955961;28;20058;-74
2022/07/24 01:25:32;;;;;;;3.58;2.10;;;14.70;99.90;;;;;;4973133;28;20099;-74
2022/07/24 01:27:57;;;;;;;4.07;1.85;;;14.60;99.90;;;;;;4972911;28;20795;-75
2022/07/24 01:30:24;;;;;;;6.53;2.55;;;14.70;99.90;;;;;;4973607;28;20027;-74
2022/07/24 01:32:49;;;;;;;3.50;2.38;;;14.60;99.90;;;;;;4973736;28;20031;-73
2022/07/24 01:35:15;;;;;;;4.85;2.90;;;14.60;99.90;;;;;;4972855;28;20030;-75
2022/07/24 01:37:40;;;;;;;6.80;3.30;;;14.50;99.90;;;;;;4955387;28;20042;-74
2022/07/24 01:40:06;;;;;;;5.78;2.10;;;14.40;99.90;;;;;;4973188;28;20034;-74
2022/07/24 01:42:32;;;;;;;4.68;2.35;;;14.50;99.90;;;;;;4973357;28;20101;-75
2022/07/24 01:44:57;;;;;;;4.70;2.88;;;14.50;99.90;;;;;;4973354;28;20531;-74
2022/07/24 01:47:23;;;;;;;3.38;2.30;;;14.50;99.90;;;;;;4973175;28;20035;-75
2022/07/24 01:49:49;;;;;;;5.25;2.58;;;14.40;99.90;;;;;;4973018;28;20063;-75
2022/07/24 01:52:15;;;;;;;4.25;2.47;;;14.40;99.90;;;;;;4973312;28;20091;-74
2022/07/24 01:54:40;;;;;;;6.70;3.13;;;14.30;99.90;;;;;;4973092;28;20023;-74
2022/07/24 01:57:06;;;;;;;6.53;2.72;;;14.30;99.90;;;;;;4975754;28;20093;-74
2022/07/24 01:59:32;;;;;;;6.15;3.00;;;14.20;99.90;;;;;;4976672;28;20046;-74
2022/07/24 02:01:57;;;;;;;4.45;2.63;;;14.30;99.90;;;;;;4976833;28;20023;-75
2022/07/24 02:04:23;;;;;;;2.42;1.58;;;14.30;99.90;;;;;;4976532;28;20022;-75
2022/07/24 02:06:48;;;;;;;5.10;2.50;;;14.30;99.90;;;;;;4977266;28;20058;-75
2022/07/24 02:09:14;;;;;;;7.13;2.47;;;14.30;99.90;;;;;;4976586;28;20047;-75
2022/07/24 02:11:39;;;;;;;6.13;2.70;;;14.30;99.90;;;;;;4976701;28;20076;-74
2022/07/24 02:14:05;;;;;;;4.32;2.30;;;14.30;99.90;;;;;;4976957;28;20079;-75
2022/07/24 02:16:31;;;;;;;5.55;2.05;;;14.30;99.90;;;;;;4976309;28;20023;-75
2022/07/24 02:18:56;;;;;;;3.78;2.53;;;14.20;99.90;;;;;;4976608;28;20046;-74
2022/07/24 02:21:22;;;;;;;3.05;2.05;;;14.20;99.90;;;;;;4976948;28;20647;-75
2022/07/24 02:23:48;;;;;;;11.00;2.60;;;14.30;99.90;;;;;;4976480;28;20046;-74
2022/07/24 02:26:13;;;;;;;8.38;3.08;;;14.20;99.90;;;;;;4976773;28;20028;-75
2022/07/24 02:28:39;;;;;;;5.18;2.35;;;14.20;99.90;;;;;;4976472;28;20015;-75
2022/07/24 02:31:05;;;;;;;7.68;2.30;;;14.20;99.90;;;;;;4958765;28;20031;-74
2022/07/24 02:33:30;;;;;;;3.58;2.30;;;14.20;99.90;;;;;;4976574;28;20031;-75
2022/07/24 02:35:56;;;;;;;7.25;2.90;;;14.10;99.90;;;;;;4976190;28;20141;-75
2022/07/24 02:38:21;;;;;;;6.47;2.55;;;14.10;99.90;;;;;;4976181;28;20459;-75
2022/07/24 02:40:47;;;;;;;4.38;2.53;;;14.10;99.90;;;;;;4976668;28;20023;-76
2022/07/24 02:43:13;;;;;;;13.02;2.45;;;14.00;99.90;;;;;;4976629;28;20386;-75
2022/07/24 02:45:38;;;;;;;7.13;3.17;;;14.00;99.90;;;;;;4975777;28;20031;-75
2022/07/24 02:48:04;;;;;;;6.55;2.78;;;14.00;99.90;;;;;;4976418;28;20404;-75
2022/07/24 02:50:32;;;;;;;6.50;3.13;;;14.00;99.90;;;;;;4976769;28;20049;-75
2022/07/24 02:52:58;;;;;;;4.57;2.30;;;14.00;99.90;;;;;;4976276;28;20051;-74
2022/07/24 02:55:27;;;;;;;5.40;2.72;;;14.00;99.90;;;;;;4976186;28;20035;-75
2022/07/24 02:57:55;;;;;;;3.45;1.73;;;14.00;99.90;;;;;;4975925;28;20043;-75
2022/07/24 03:00:20;;;;;;;5.05;2.10;;;13.90;99.90;;;;;;4976062;28;20026;-75
2022/07/24 03:02:46;;;;;;;3.25;1.92;;;13.90;99.90;;;;;;4975722;28;20078;-75
2022/07/24 03:05:13;;;;;;;3.08;1.83;;;13.90;99.90;;;;;;4975658;28;20030;-75
2022/07/24 03:07:38;;;;;;;5.38;2.42;;;13.90;99.90;;;;;;4974965;28;20035;-75
2022/07/24 03:10:05;;;;;;;3.65;1.95;;;13.90;99.90;;;;;;4975802;28;20616;-75
2022/07/24 03:12:31;;;;;;;4.85;2.67;;;13.80;99.90;;;;;;4975072;28;20102;-75
2022/07/24 03:14:57;;;;;;;3.92;2.22;;;13.80;99.90;;;;;;4975690;28;20024;-75
2022/07/24 03:17:22;;;;;;;4.78;2.28;;;13.90;99.90;;;;;;4975948;28;20089;-76
2022/07/24 03:19:48;;;;;;;8.25;2.97;;;13.80;99.90;;;;;;4957930;28;20031;-76
2022/07/24 03:22:14;;;;;;;3.83;2.05;;;13.80;99.90;;;;;;4958267;28;20023;-75
2022/07/24 03:24:40;;;;;;;6.00;2.67;;;13.90;99.90;;;;;;4975480;28;20373;-75
2022/07/24 03:27:05;;;;;;;5.28;2.50;;;13.80;99.90;;;;;;4975751;28;20042;-74
2022/07/24 03:29:31;;;;;;;2.78;2.00;;;13.80;99.90;;;;;;4975350;28;20114;-75
2022/07/24 03:31:56;;;;;;;5.22;2.20;;;13.80;99.90;;;;;;4975821;28;20030;-74
2022/07/24 03:34:22;;;;;;;5.38;3.00;;;13.70;99.90;;;;;;4957549;28;20031;-76
2022/07/24 03:36:48;;;;;;;10.98;2.08;;;13.80;99.90;;;;;;4975256;28;20039;-75
2022/07/24 03:39:14;;;;;;;4.13;2.50;;;13.70;99.90;;;;;;4975275;28;20027;-74
2022/07/24 03:41:40;;;;;;;6.82;2.80;;;13.70;99.90;;;;;;4975068;28;20023;-74
2022/07/24 03:44:06;;;;;;;4.85;2.47;;;13.70;99.90;;;;;;4975273;28;20531;-75
2022/07/24 03:46:32;;;;;;;5.43;2.50;;;13.70;99.90;;;;;;4974865;28;20026;-74
2022/07/24 03:48:58;;;;;;;8.75;2.80;;;13.70;99.90;;;;;;4974836;28;20043;-74
2022/07/24 03:51:23;;;;;;;4.68;2.63;;;13.70;99.90;;;;;;4974942;28;20015;-74
2022/07/24 03:53:49;;;;;;;9.23;2.72;;;13.70;99.90;;;;;;4975162;28;20158;-74
2022/07/24 03:56:15;;;;;;;3.22;1.50;;;13.70;99.90;;;;;;4975169;28;20113;-75
2022/07/24 03:58:41;;;;;;;7.88;2.65;;;13.70;99.90;;;;;;4974993;28;20039;-74
2022/07/24 04:01:07;;;;;;;3.70;2.13;;;13.70;99.90;;;;;;4974756;28;20019;-74
2022/07/24 04:03:34;;;;;;;4.07;2.00;;;13.70;99.90;;;;;;4974303;28;20034;-74
2022/07/24 04:06:06;;;;;;;6.70;2.67;;;13.70;99.90;;;;;;4975035;28;20505;-74
2022/07/24 04:08:32;;;;;;;6.40;2.85;;;13.70;99.90;;;;;;4974934;28;20031;-74
2022/07/24 04:10:58;;;;;;;5.82;1.98;;;13.70;99.90;;;;;;4974836;28;20027;-74
2022/07/24 04:13:29;;;;;;;3.38;2.22;;;13.70;99.90;;;;;;4974276;28;20099;-74
2022/07/24 04:15:55;;;;;;;6.97;2.53;;;13.70;99.90;;;;;;4974096;28;20042;-75
2022/07/24 04:18:21;;;;;;;3.60;2.30;;;13.80;99.90;;;;;;4974558;28;20118;-75
2022/07/24 04:20:47;;;;;;;4.35;2.35;;;13.80;99.90;;;;;;4974598;28;20026;-74
2022/07/24 04:23:13;;;;;;;4.18;2.88;;;13.80;99.90;;;;;;4974737;28;20034;-74
2022/07/24 04:25:39;;;;;;;5.55;2.83;;;13.90;99.90;;;;;;4974732;28;20031;-75
2022/07/24 04:28:04;;;;;;;3.00;1.90;;;13.90;99.90;;;;;;4956366;28;20032;-75
2022/07/24 04:30:30;;;;;;;9.30;2.97;;;13.90;99.90;;;;;;4973764;28;20027;-75
2022/07/24 04:32:56;;;;;;;2.78;1.65;;;13.90;99.90;;;;;;4974381;28;20026;-74
2022/07/24 04:35:22;;;;;;;4.80;2.30;;;13.80;99.90;;;;;;4956252;28;20059;-75
2022/07/24 04:37:48;;;;;;;4.45;2.50;;;13.90;99.90;;;;;;4973904;28;20039;-75
2022/07/24 04:40:13;;;;;;;3.58;2.38;;;13.90;99.90;;;;;;4974648;28;20476;-75
2022/07/24 04:42:39;;;;;;;5.20;2.25;;;13.90;99.90;;;;;;4973854;28;20038;-74
2022/07/24 04:45:08;;;;;;;3.38;2.50;;;13.90;99.90;;;;;;4973759;28;20027;-74
2022/07/24 04:47:33;;;;;;;3.33;1.88;;;14.00;99.90;;;;;;4974078;28;20035;-74
2022/07/24 04:49:59;;;;;;;6.50;2.75;;;14.00;99.90;;;;;;4973789;28;20020;-75
2022/07/24 04:52:24;;;;;;;15.07;3.17;;;14.00;99.90;;;;;;4973954;28;20387;-75
2022/07/24 04:54:50;;;;;;;2.50;1.90;;;14.00;99.90;;;;;;4956969;28;20555;-74
2022/07/24 04:57:16;;;;;;;3.42;2.28;;;14.00;99.90;;;;;;4956232;28;20063;-75
2022/07/24 04:59:42;;;;;;;3.88;2.00;;;14.10;99.90;;;;;;4956187;28;20031;-75
2022/07/24 05:02:08;;;;;;;3.58;2.75;;;14.10;99.90;;;;;;4974010;28;20034;-73
2022/07/24 05:04:34;;;;;;;3.90;2.35;;;14.10;99.90;;;;;;4955905;28;20111;-74
2022/07/24 05:07:00;;;;;;;2.85;1.70;;;14.20;99.90;;;;;;4956197;28;20031;-73
2022/07/24 05:09:27;;;;;;;4.05;2.05;;;14.20;99.90;;;;;;4975197;28;20027;-71
2022/07/24 05:11:54;;;;;;;2.15;1.60;;;14.20;99.90;;;;;;4975377;28;20027;-73
2022/07/24 05:14:20;;;;;;;4.07;1.98;;;14.30;99.90;;;;;;4972777;28;20087;-73
2022/07/24 05:16:46;;;;;;;6.47;2.50;;;14.30;99.90;;;;;;4974002;28;20023;-73
2022/07/24 05:19:12;;;;;;;3.92;2.40;;;14.30;99.90;;;;;;4973135;28;20023;-74
2022/07/24 05:21:37;;;;;;;3.15;1.90;;;14.40;99.90;;;;;;4973645;28;20309;-72
2022/07/24 05:24:04;;;;;;;3.67;1.50;;;14.30;99.90;;;;;;4973201;28;20031;-72
2022/07/24 05:26:31;;;;;;;5.13;2.35;;;14.30;99.90;;;;;;4973017;28;20574;-73
2022/07/24 05:28:58;;;;;;;2.85;1.90;;;14.40;99.90;;;;;;4973514;28;20027;-72
2022/07/24 05:31:24;;;;;;;6.50;2.53;;;14.40;99.90;;;;;;4972708;28;20050;-74
2022/07/24 05:33:49;;;;;;;2.83;1.60;;;14.40;99.90;;;;;;4972948;28;20027;-73
2022/07/24 05:36:15;;;;;;;7.85;2.03;;;14.50;99.90;;;;;;4972868;28;20024;-74
2022/07/24 05:38:40;;;;;;;5.50;2.50;;;14.50;99.90;;;;;;4974736;28;20110;-74
2022/07/24 05:41:06;;;;;;;3.63;1.60;;;14.50;99.90;;;;;;4974521;28;20483;-73
2022/07/24 05:43:32;;;;;;;4.03;2.10;;;14.60;99.90;;;;;;4973790;28;20588;-73
2022/07/24 05:45:57;;;;;;;9.45;2.17;;;14.60;99.90;;;;;;4973294;28;20030;-74
2022/07/24 05:48:23;;;;;;;9.10;2.17;;;14.70;99.90;;;;;;4975365;28;20027;-74
2022/07/24 05:50:48;;;;;;;3.72;2.17;;;14.70;99.90;;;;;;4973021;28;20038;-75
2022/07/24 05:53:14;;;;;;;2.35;1.50;;;14.80;99.90;;;;;;4973333;28;20034;-74
2022/07/24 05:55:39;;;;;;;3.90;2.33;;;14.80;99.90;;;;;;4974737;28;20039;-74
2022/07/24 05:58:05;;;;;;;2.45;2.03;;;15.00;99.90;;;;;;4973133;28;20822;-73
2022/07/24 06:00:31;;;;;;;3.83;1.85;;;15.00;99.90;;;;;;4972993;28;20031;-73
2022/07/24 06:02:56;;;;;;;3.05;1.80;;;15.10;99.90;;;;;;4973655;28;20399;-74
2022/07/24 06:05:22;;;;;;;3.15;1.77;;;15.10;99.90;;;;;;4973987;28;20080;-74
2022/07/24 06:07:48;;;;;;;10.60;2.00;;;15.20;99.90;;;;;;4975052;28;20074;-74
2022/07/24 06:10:13;;;;;;;3.60;2.15;;;15.30;99.90;;;;;;4973856;28;20031;-74
2022/07/24 06:12:39;;;;;;;4.50;1.88;;;15.30;99.90;;;;;;4972482;28;20059;-73
2022/07/24 06:15:05;;;;;;;3.80;2.13;;;15.40;99.90;;;;;;4972617;28;20027;-73
2022/07/24 06:17:30;;;;;;;3.85;2.15;;;15.50;99.90;;;;;;4973087;28;20043;-74
2022/07/24 06:19:56;;;;;;;3.50;1.95;;;15.60;99.90;;;;;;4973639;28;20111;-75
2022/07/24 06:22:21;;;;;;;4.15;1.67;;;15.70;99.90;;;;;;4973751;28;20038;-75
2022/07/24 06:24:47;;;;;;;1.63;1.45;;;15.70;99.90;;;;;;4973378;28;20036;-73
2022/07/24 06:27:13;;;;;;;2.53;1.65;;;15.80;99.90;;;;;;4972396;28;20086;-73
2022/07/24 06:29:38;;;;;;;4.65;2.72;;;15.90;99.90;;;;;;4972926;28;20056;-72
2022/07/24 06:32:04;;;;;;;2.13;1.15;;;16.00;99.90;;;;;;4972507;28;20107;-74
2022/07/24 06:34:30;;;;;;;2.72;1.73;;;16.20;99.90;;;;;;4973835;28;20058;-73
2022/07/24 06:36:55;;;;;;;5.50;1.80;;;16.30;99.90;;;;;;4955729;28;20027;-74
2022/07/24 06:39:21;;;;;;;3.97;2.08;;;16.30;99.90;;;;;;4972911;28;20034;-74
2022/07/24 06:41:46;;;;;;;2.33;1.33;;;16.50;99.90;;;;;;4955057;28;20031;-73
2022/07/24 06:44:12;;;;;;;2.70;1.52;;;16.70;99.90;;;;;;4958955;28;20033;-73
2022/07/24 06:46:38;;;;;;;3.10;1.60;;;16.70;99.90;;;;;;4975855;28;20022;-73
2022/07/24 06:49:03;;;;;;;10.32;1.38;;;16.80;99.90;;;;;;4977650;28;20083;-74
2022/07/24 06:51:29;;;;;;;4.60;2.13;;;17.00;99.90;;;;;;4976129;28;20131;-74
2022/07/24 06:53:55;;;;;;;2.20;1.40;;;17.10;99.90;;;;;;4976685;28;20035;-74
2022/07/24 06:56:20;;;;;;;2.33;1.50;;;17.20;99.90;;;;;;4976977;28;20415;-74
2022/07/24 06:58:46;;;;;;;7.63;1.85;;;17.40;99.90;;;;;;4976125;28;20046;-77
2022/07/24 07:01:11;;;;;;;4.07;1.85;;;17.50;99.90;;;;;;4960396;28;20026;-75
2022/07/24 07:03:37;;;;;;;2.75;1.67;;;17.60;99.90;;;;;;4975758;28;20033;-74
2022/07/24 07:06:03;;;;;;;4.10;1.63;;;17.80;99.90;;;;;;4976125;28;20387;-73
2022/07/24 07:08:29;;;;;;;2.13;1.23;;;17.90;99.90;;;;;;4975861;28;20018;-76
2022/07/24 07:10:54;;;;;;;2.03;1.33;;;18.00;99.90;;;;;;4977467;28;20038;-75
2022/07/24 07:13:20;;;;;;;2.22;1.58;;;18.10;99.90;;;;;;4975729;28;20098;-75
2022/07/24 07:15:46;;;;;;;5.13;1.63;;;18.30;99.90;;;;;;4974586;28;20026;-75
2022/07/24 07:18:12;;;;;;;2.42;1.27;;;18.30;99.90;;;;;;4975836;28;20049;-76
2022/07/24 07:20:37;;;;;;;2.92;1.38;;;18.50;99.90;;;;;;4958721;28;20027;-78
2022/07/24 07:23:03;;;;;;;2.65;1.58;;;18.60;99.90;;;;;;4975993;28;20039;-76
2022/07/24 07:25:29;;;;;;;3.88;1.30;;;18.70;99.90;;;;;;4975615;28;20035;-77
2022/07/24 07:27:54;;;;;;;2.30;1.30;;;18.90;99.90;;;;;;4975442;28;20033;-77
2022/07/24 07:30:21;;;;;;;1.80;1.20;;;19.00;99.90;;;;;;4975590;28;20030;-74
2022/07/24 07:32:47;;;;;;;10.90;1.45;;;19.10;99.90;;;;;;4976012;28;20057;-76
2022/07/24 07:35:13;;;;;;;1.73;1.10;;;19.30;99.90;;;;;;4958531;28;20027;-74
2022/07/24 07:37:38;;;;;;;3.08;1.40;;;19.30;99.90;;;;;;4975003;28;20042;-77
2022/07/24 07:40:05;;;;;;;1.88;1.15;;;19.30;99.90;;;;;;4974991;28;20122;-73
2022/07/24 07:42:30;;;;;;;1.30;0.90;;;19.40;99.90;;;;;;4976447;28;20045;-75
2022/07/24 07:44:56;;;;;;;1.92;1.23;;;19.50;99.90;;;;;;4976651;28;20122;-74
2022/07/24 07:47:23;;;;;;;1.15;1.02;;;19.50;99.90;;;;;;4976488;28;20383;-74
2022/07/24 07:49:49;;;;;;;4.45;1.45;;;19.60;99.90;;;;;;4958397;28;20042;-74
2022/07/24 07:52:14;;;;;;;1.52;0.93;;;19.70;99.90;;;;;;4975114;28;20113;-78
2022/07/24 07:54:40;;;;;;;2.00;1.15;;;19.90;99.90;;;;;;4974020;28;20055;-75
2022/07/24 07:57:05;;;;;;;3.35;1.20;;;19.90;99.90;;;;;;4976178;28;20046;-75
2022/07/24 07:59:31;;;;;;;1.20;0.88;;;20.10;99.90;;;;;;4974903;28;20031;-76
2022/07/24 08:01:56;;;;;;;2.33;1.13;;;20.10;99.90;;;;;;4975117;28;20059;-73
2022/07/24 08:04:22;;;;;;;2.05;1.40;;;20.30;99.90;;;;;;4957685;28;20027;-76
2022/07/24 08:06:48;;;;;;;1.98;1.15;;;20.30;99.90;;;;;;4974865;28;20492;-75
2022/07/24 08:09:17;;;;;;;2.08;1.13;;;20.40;99.90;;;;;;4975681;28;20027;-74
2022/07/24 08:11:43;;;;;;;2.45;1.30;;;20.50;99.90;;;;;;4974311;28;20050;-75
2022/07/24 08:14:08;;;;;;;0.93;0.80;;;20.60;99.90;;;;;;4975222;28;20091;-75
2022/07/24 08:16:34;;;;;;;2.33;1.45;;;20.60;99.90;;;;;;4975097;28;20043;-75
2022/07/24 08:18:59;;;;;;;1.63;1.05;;;20.80;99.90;;;;;;4974970;28;20126;-76
2022/07/24 08:21:25;;;;;;;3.05;1.45;;;20.90;99.90;;;;;;4975816;28;20027;-75
2022/07/24 08:23:51;;;;;;;1.10;0.93;;;20.90;99.90;;;;;;4976724;28;20039;-74
2022/07/24 08:26:17;;;;;;;1.83;1.10;;;21.10;99.90;;;;;;4974697;28;20027;-77
2022/07/24 08:28:43;;;;;;;1.80;1.35;;;21.20;99.90;;;;;;4974439;28;20035;-74
2022/07/24 08:31:08;;;;;;;1.75;1.13;;;21.30;99.90;;;;;;4974014;28;20034;-75
2022/07/24 08:33:34;;;;;;;3.08;1.60;;;21.40;99.90;;;;;;4973402;28;20059;-78
2022/07/24 08:35:59;;;;;;;2.50;1.35;;;21.50;99.90;;;;;;4974148;28;20105;-74
2022/07/24 08:38:25;;;;;;;1.23;1.13;;;21.70;99.90;;;;;;4958140;28;20090;-74
2022/07/24 08:40:51;;;;;;;2.05;1.23;;;21.80;99.90;;;;;;4972350;28;20027;-78
2022/07/24 08:43:17;;;;;;;3.53;1.83;;;21.90;99.90;;;;;;4972638;28;20588;-77
2022/07/24 08:45:46;;;;;;;3.33;1.52;;;22.00;99.90;;;;;;4974767;28;20031;-74
2022/07/24 08:48:12;;;;;;;2.85;1.45;;;22.10;99.90;;;;;;4973588;28;20957;-75
2022/07/24 08:50:42;;;;;;;8.77;1.65;;;22.20;99.90;;;;;;4972716;28;20023;-76
2022/07/24 08:53:08;;;;;;;3.30;1.58;;;22.30;99.90;;;;;;4974648;28;20162;-74
2022/07/24 08:55:34;;;;;;;4.30;1.85;;;22.40;99.90;;;;;;4973500;28;20046;-73
2022/07/24 08:58:00;;;;;;;8.48;1.70;;;22.60;99.90;;;;;;4972326;28;20039;-78
2022/07/24 09:00:27;;;;;;;2.92;1.50;;;22.60;99.90;;;;;;4955901;28;20051;-76
2022/07/24 09:02:53;;;;;;;5.30;1.52;;;22.80;99.90;;;;;;4973516;28;20030;-73
2022/07/24 09:05:19;;;;;;;2.50;1.55;;;22.90;99.90;;;;;;4972889;28;20483;-74
2022/07/24 09:07:45;;;;;;;7.63;1.75;;;23.10;99.90;;;;;;4955329;28;20032;-78
2022/07/24 09:10:13;;;;;;;5.47;1.67;;;23.10;99.90;;;;;;4955439;28;20031;-73
2022/07/24 09:12:45;;;;;;;6.30;1.58;;;23.30;99.90;;;;;;4955906;28;20476;-70
2022/07/24 09:15:14;;;;;;;3.92;1.60;;;23.50;99.90;;;;;;4973596;28;20367;-71
2022/07/24 09:17:54;;;;;;;2.47;1.77;;;23.60;99.90;;;;;;4973575;28;21012;-76
2022/07/24 09:20:21;;;;;;;2.58;1.67;;;23.80;99.90;;;;;;4975361;28;20065;-79
2022/07/24 09:22:47;;;;;;;3.58;1.88;;;23.90;99.90;;;;;;4957034;28;20029;-76
2022/07/24 09:25:19;;;;;;;3.45;1.75;;;23.90;99.90;;;;;;4973990;28;20084;-76
2022/07/24 09:28:02;;;;;;;4.47;1.73;;;23.90;99.90;;;;;;4973639;28;20027;-76
2022/07/24 09:30:44;;;;;;;3.60;1.88;;;23.90;99.90;;;;;;4973596;28;20090;-74
2022/07/24 09:33:13;;;;;;;4.07;2.13;;;24.00;99.90;;;;;;4956572;28;20042;-74
2022/07/24 09:35:48;;;;;;;3.13;2.10;;;24.10;99.90;;;;;;4973732;28;20042;-71
2022/07/24 09:38:17;;;;;;;3.65;2.20;;;24.20;99.90;;;;;;4973449;28;20238;-77
2022/07/24 09:40:51;;;;;;;2.97;1.60;;;24.10;99.90;;;;;;4956000;28;20027;-75
2022/07/24 09:43:31;;;;;;;3.65;2.38;;;24.20;99.90;;;;;;4973955;28;20030;-74
2022/07/24 09:46:01;;;;;;;5.13;2.10;;;24.30;99.90;;;;;;4956113;28;20038;-74
2022/07/24 09:48:36;;;;;;;4.32;2.40;;;24.30;99.90;;;;;;4955806;28;20130;-75
2022/07/24 09:51:12;;;;;;;5.50;2.33;;;24.60;99.90;;;;;;4956168;28;20023;-78
2022/07/24 09:53:39;;;;;;;2.63;1.95;;;24.70;99.90;;;;;;4971466;28;20096;-73
2022/07/24 09:56:10;;;;;;;8.63;2.28;;;24.90;99.90;;;;;;4972841;28;20036;-75
2022/07/24 09:58:48;;;;;;;6.85;2.88;;;25.00;99.90;;;;;;4972380;28;20042;-77
2022/07/24 10:01:17;;;;;;;3.05;1.70;;;25.10;99.90;;;;;;4971148;28;20029;-74
2022/07/24 10:03:46;;;;;;;4.13;1.98;;;25.20;99.90;;;;;;4972552;28;20049;-76
2022/07/24 10:06:14;;;;;;;6.00;2.55;;;25.30;99.90;;;;;;4972317;28;20027;-77
2022/07/24 10:08:42;;;;;;;2.60;1.92;;;25.40;99.90;;;;;;4972906;28;20094;-73
2022/07/24 10:11:08;;;;;;;3.83;1.80;;;25.50;99.90;;;;;;4972432;28;20059;-75
2022/07/24 10:13:35;;;;;;;3.47;2.35;;;25.60;99.90;;;;;;4972215;28;20042;-74
2022/07/24 10:16:13;;;;;;;4.25;2.30;;;25.60;99.90;;;;;;4973240;28;20089;-78
2022/07/24 10:18:48;;;;;;;4.55;1.70;;;25.70;99.90;;;;;;4976443;28;20039;-76
2022/07/24 10:21:23;;;;;;;2.25;1.70;;;25.70;99.90;;;;;;4977522;28;20033;-75
2022/07/24 10:24:07;;;;;;;3.38;2.10;;;25.80;99.90;;;;;;4977584;28;20086;-75
2022/07/24 10:26:32;;;;;;;7.03;2.10;;;25.80;99.90;;;;;;4977968;28;20039;-74
2022/07/24 10:29:07;;;;;;;3.10;2.05;;;25.80;99.90;;;;;;4975463;28;20023;-75
2022/07/24 10:31:35;;;;;;;4.88;2.28;;;25.80;99.90;;;;;;4976381;28;20014;-72
2022/07/24 10:34:03;;;;;;;7.07;2.60;;;25.90;99.90;;;;;;4975954;28;20030;-72
2022/07/24 10:36:32;;;;;;;6.85;2.35;;;26.00;99.90;;;;;;4958824;28;20035;-74
2022/07/24 10:39:20;;;;;;;3.85;2.58;;;26.10;99.90;;;;;;4958541;28;20058;-74
2022/07/24 10:42:04;;;;;;;3.85;2.10;;;26.30;99.90;;;;;;4974919;28;20034;-79
2022/07/24 10:44:30;;;;;;;3.03;1.92;;;26.40;99.90;;;;;;4975043;28;20113;-72
2022/07/24 10:47:07;;;;;;;3.70;1.92;;;26.50;99.90;;;;;;4975091;28;20496;-75
2022/07/24 10:49:43;;;;;;;4.35;2.17;;;26.60;99.90;;;;;;4976050;28;20020;-74
2022/07/24 10:52:33;;;;;;;2.67;2.05;;;26.60;99.90;;;;;;4958114;28;20035;-70
2022/07/24 10:55:32;;;;;;;3.83;2.28;;;26.70;99.90;;;;;;4975581;28;20019;-71
2022/07/24 10:58:00;;;;;;;6.43;2.88;;;26.70;99.90;;;;;;4975678;28;20067;-73
2022/07/24 11:00:34;;;;;;;4.07;2.10;;;26.80;99.90;;;;;;4975046;28;20027;-73
2022/07/24 11:03:03;;;;;;;1.73;1.60;;;26.80;99.90;;;;;;4975862;28;20051;-76
2022/07/24 11:05:31;;;;;;;4.00;2.30;;;26.90;99.90;;;;;;4975875;28;20075;-75
2022/07/24 11:08:11;;;;;;;4.47;2.25;;;27.20;99.90;;;;;;4975371;28;20030;-74
2022/07/24 11:10:49;;;;;;;6.15;2.47;;;27.40;99.90;;;;;;4976101;28;20695;-73
2022/07/24 11:13:33;;;;;;;3.47;2.22;;;27.50;99.90;;;;;;4975247;28;20059;-72
2022/07/24 11:16:10;;;;;;;3.42;1.85;;;27.50;99.90;;;;;;4974841;28;20035;-74
2022/07/24 11:18:40;;;;;;;3.65;1.90;;;27.40;99.90;;;;;;4975548;28;20092;-73
2022/07/24 11:21:08;;;;;;;7.40;2.25;;;27.40;99.90;;;;;;4975504;28;20077;-72
2022/07/24 11:23:34;;;;;;;3.58;2.30;;;27.50;99.90;;;;;;4974879;28;20110;-72
2022/07/24 11:26:30;;;;;;;2.47;1.73;;;27.50;99.90;;;;;;4975375;28;20062;-72
2022/07/24 11:29:26;;;;;;;2.70;1.45;;;27.40;99.90;;;;;;4973971;28;20047;-75
2022/07/24 11:32:00;;;;;;;3.88;1.88;;;27.30;99.90;;;;;;4957500;28;20095;-75
2022/07/24 11:34:28;;;;;;;4.63;2.20;;;27.30;99.90;;;;;;4975621;28;20035;-72
2022/07/24 11:36:56;;;;;;;2.72;1.73;;;27.50;99.90;;;;;;4975004;28;20027;-73
2022/07/24 11:39:33;;;;;;;11.48;2.33;;;27.70;99.90;;;;;;4974776;28;20058;-76
2022/07/24 11:42:20;;;;;;;6.32;2.17;;;27.80;99.90;;;;;;4973677;28;20035;-76
2022/07/24 11:44:50;;;;;;;3.33;1.65;;;27.90;99.90;;;;;;4974626;28;20046;-75
2022/07/24 11:47:27;;;;;;;2.60;1.77;;;28.00;99.90;;;;;;4975400;28;20051;-79
2022/07/24 11:49:53;;;;;;;2.53;1.65;;;28.20;99.90;;;;;;4975011;28;20030;-75
2022/07/24 11:52:32;;;;;;;3.90;2.22;;;28.30;99.90;;;;;;4956846;28;20028;-75
2022/07/24 11:55:02;;;;;;;3.60;2.45;;;28.40;99.90;;;;;;4956205;28;20015;-71
2022/07/24 11:57:31;;;;;;;4.65;1.80;;;28.60;99.90;;;;;;4975052;28;20043;-74
2022/07/24 11:59:57;;;;;;;2.92;2.03;;;28.70;99.90;;;;;;4957252;28;20023;-74
2022/07/24 12:02:23;;;;;;;2.55;1.52;;;28.80;99.90;;;;;;4974454;28;20031;-72
2022/07/24 12:04:51;;;;;;;3.63;1.50;;;28.80;99.90;;;;;;4957342;28;20038;-72
2022/07/24 12:07:26;;;;;;;11.00;1.88;;;28.60;99.90;;;;;;4974427;28;20480;-75
2022/07/24 12:09:59;;;;;;;2.45;1.95;;;28.50;99.90;;;;;;4974865;28;20027;-71
2022/07/24 12:12:32;;;;;;;4.10;2.33;;;28.60;99.90;;;;;;4974114;28;20074;-73
2022/07/24 12:15:06;;;;;;;3.80;1.80;;;28.60;99.90;;;;;;4973947;28;20034;-74
2022/07/24 12:17:34;;;;;;;5.75;2.00;;;28.70;99.90;;;;;;4974673;28;20042;-77
2022/07/24 12:20:02;;;;;;;3.65;1.52;;;28.80;99.90;;;;;;4973784;28;20023;-75
2022/07/24 12:22:28;;;;;;;3.80;1.73;;;29.00;99.90;;;;;;4973025;28;20046;-76
2022/07/24 12:24:57;;;;;;;2.20;1.48;;;29.10;99.90;;;;;;4956541;28;20030;-74
2022/07/24 12:27:37;;;;;;;3.15;2.25;;;29.30;99.90;;;;;;4974167;28;20020;-71
2022/07/24 12:30:15;;;;;;;2.90;1.58;;;29.40;99.90;;;;;;4973576;28;20117;-73
2022/07/24 12:33:03;;;;;;;5.25;1.95;;;29.60;99.90;;;;;;4956720;28;20039;-73
2022/07/24 12:35:31;;;;;;;2.33;1.50;;;29.80;99.90;;;;;;4974139;28;20024;-71
2022/07/24 12:37:59;;;;;;;3.08;1.95;;;29.90;99.90;;;;;;4973385;28;20043;-75
2022/07/24 12:40:31;;;;;;;21.30;1.80;;;29.90;99.90;;;;;;4972510;28;20034;-72
2022/07/24 12:42:58;;;;;;;3.65;1.45;;;29.90;99.90;;;;;;4973812;28;20106;-75
2022/07/24 12:45:24;;;;;;;2.22;1.73;;;29.90;99.90;;;;;;4973418;28;20015;-73
2022/07/24 12:48:10;;;;;;;2.03;1.50;;;30.00;99.90;;;;;;4973702;28;20147;-74